Webcam

2020/02/19 18:20 EBBR 191820Z 24011KT 9999 -RA FEW015 BKN018 OVC035 06/03 Q1022 NOSIG

Webcam

--- Refresh now ---